»·PEaware :: N751LU KLAS-KMRY

N751LU :: KLAS-KMRY

FLIGHT INFORMATION

Flight Status: Arrived
Operator: Privately registered:
United States
More flights under this callsign
Pilot: Ewen S. (18928)
Aircraft: BEECH AIRCRAFT PREMIER
(PRM1)
More flights by this aircraft type
Origin: KLAS McCarran Intl
United States
Destination: KMRY Monterey Peninsula
United States
More flights between these airports :: More routes between these airports
Route: SHEAD1 KENNO Q162 NTELL SNS
File this flight plan on PilotEdge
Remarks:
Altitude:
(Current/Filed)
34,000ft
Speed:
(Current/Filed)
425kts
Departed: 14-Sep-20 03:17 PM
Arrived: 14-Sep-20 04:36 PM
Distance/Time
Traveled:
325nm/1:19
Distance/Time
To Go:
Arrived

Flight Plot

Page will automatically refresh every two minutes.

Flight plan parsing failed; only flown route is shown


Map Options




Map Legend


Flown Route
Filed Route
Departure Airport
Arrival Airport
Navaid (VOR, NDB)
Fix

Horizontal Profiles

Position Reports

Time Latitude Longitude Heading Altitude Ground
Speed
14-Sep-20 15:02 36.081140 -115.171206 89 2185ft 0kts
14-Sep-20 15:03 36.081140 -115.171206 89 2185ft 0kts
14-Sep-20 15:04 36.081140 -115.171206 89 2185ft 0kts
14-Sep-20 15:05 36.081140 -115.171206 89 2185ft 0kts
14-Sep-20 15:06 36.081140 -115.171206 89 2185ft 0kts
14-Sep-20 15:07 36.081140 -115.171206 89 2185ft 0kts
14-Sep-20 15:08 36.081140 -115.171205 89 2185ft 0kts
14-Sep-20 15:09 36.081161 -115.171083 68 2185ft 0kts
14-Sep-20 15:10 36.081439 -115.170753 74 2185ft 1kts
14-Sep-20 15:11 36.083637 -115.168012 25 2185ft 19kts
14-Sep-20 15:12 36.089213 -115.164829 24 2185ft 23kts
14-Sep-20 15:13 36.094270 -115.161848 51 2185ft 9kts
14-Sep-20 15:14 36.093746 -115.159915 135 2185ft 6kts
14-Sep-20 15:15 36.093202 -115.160140 205 2185ft 18kts
14-Sep-20 15:16 36.058650 -115.179356 205 3128ft 198kts
14-Sep-20 15:17 36.008374 -115.219171 240 5174ft 228kts
14-Sep-20 15:18 35.978156 -115.286397 238 6977ft 225kts
14-Sep-20 15:19 35.938657 -115.341496 221 8653ft 205kts
14-Sep-20 15:20 35.895079 -115.395801 233 8982ft 230kts
14-Sep-20 15:21 35.886540 -115.473801 268 10400ft 236kts
14-Sep-20 15:22 35.888600 -115.560306 268 10985ft 271kts
14-Sep-20 15:23 35.890466 -115.658305 268 12738ft 287kts
14-Sep-20 15:24 35.892243 -115.755596 269 15653ft 279kts
14-Sep-20 15:25 35.893869 -115.850041 270 18573ft 266kts
14-Sep-20 15:26 35.895123 -115.936293 271 21421ft 239kts
14-Sep-20 15:27 35.924891 -116.005328 316 23058ft 256kts
14-Sep-20 15:28 35.982395 -116.071123 316 23356ft 293kts
14-Sep-20 15:29 36.038641 -116.136248 315 25513ft 262kts
14-Sep-20 15:30 36.088453 -116.193626 313 27665ft 224kts
14-Sep-20 15:31 36.128288 -116.239502 309 29724ft 161kts
14-Sep-20 15:32 36.163410 -116.283875 315 30082ft 197kts
14-Sep-20 15:33 36.207514 -116.331129 312 30770ft 223kts
14-Sep-20 15:35 36.254990 -116.386018 312 31719ft 237kts
14-Sep-20 15:36 36.302986 -116.441787 311 32858ft 238kts
14-Sep-20 15:37 36.351526 -116.498339 311 33921ft 240kts
14-Sep-20 15:38 36.403089 -116.558690 312 34114ft 276kts
14-Sep-20 15:39 36.463357 -116.629191 312 34112ft 314kts
14-Sep-20 15:40 36.531331 -116.708850 312 34121ft 346kts
14-Sep-20 15:41 36.612510 -116.784561 324 34129ft 376kts
14-Sep-20 15:42 36.705245 -116.855395 324 34131ft 394kts
14-Sep-20 15:43 36.800498 -116.927930 324 34133ft 408kts
14-Sep-20 15:44 36.899201 -117.003285 325 34138ft 418kts
14-Sep-20 15:45 36.998651 -117.079487 325 34143ft 423kts
14-Sep-20 15:46 37.099797 -117.157225 325 34146ft 428kts
14-Sep-20 15:47 37.201948 -117.236006 325 34180ft 430kts
14-Sep-20 15:48 37.297454 -117.323506 297 34232ft 421kts
14-Sep-20 15:49 37.315960 -117.466155 274 34226ft 420kts
14-Sep-20 15:50 37.326220 -117.613272 276 34226ft 422kts
14-Sep-20 15:50 37.336813 -117.735753 276 34230ft 423kts
14-Sep-20 15:51 37.349573 -117.884087 272 34224ft 425kts
14-Sep-20 15:53 37.337088 -118.056282 264 34213ft 427kts
14-Sep-20 15:54 37.323668 -118.204642 264 34209ft 428kts
14-Sep-20 15:54 37.312600 -118.328072 264 34209ft 428kts
14-Sep-20 15:55 37.299065 -118.477603 264 34208ft 428kts
14-Sep-20 15:56 37.285331 -118.627277 264 34208ft 428kts
14-Sep-20 15:57 37.259890 -118.773546 249 34209ft 430kts
14-Sep-20 15:58 37.215317 -118.914499 249 34155ft 431kts
14-Sep-20 15:59 37.170196 -119.055680 249 34055ft 432kts
14-Sep-20 16:00 37.126133 -119.193335 249 32865ft 415kts
14-Sep-20 16:01 37.082890 -119.327642 248 30953ft 425kts
14-Sep-20 16:02 37.036608 -119.469587 248 29058ft 452kts
14-Sep-20 16:03 36.988076 -119.618407 248 27151ft 467kts
14-Sep-20 16:04 36.940044 -119.766990 247 25214ft 440kts
14-Sep-20 16:05 36.897833 -119.907052 258 23996ft 417kts
14-Sep-20 16:06 36.878890 -120.046575 260 23989ft 403kts
14-Sep-20 16:07 36.861054 -120.184501 260 23990ft 395kts
14-Sep-20 16:08 36.843199 -120.318876 260 23990ft 391kts
14-Sep-20 16:09 36.825145 -120.453120 260 23990ft 388kts
14-Sep-20 16:10 36.807001 -120.586908 260 23990ft 387kts
14-Sep-20 16:11 36.789789 -120.712672 259 23991ft 386kts
14-Sep-20 16:12 36.771239 -120.847362 259 23989ft 383kts
14-Sep-20 16:13 36.753166 -120.977473 259 23983ft 375kts
14-Sep-20 16:14 36.734495 -121.109639 259 22640ft 403kts
14-Sep-20 16:15 36.714357 -121.253046 259 20339ft 426kts
14-Sep-20 16:16 36.694348 -121.393324 258 18073ft 367kts
14-Sep-20 16:17 36.678432 -121.503626 257 15613ft 293kts
14-Sep-20 16:18 36.665388 -121.593845 257 11990ft 250kts
14-Sep-20 16:19 36.682764 -121.673934 292 8388ft 245kts
14-Sep-20 16:20 36.711900 -121.748732 293 5816ft 231kts
14-Sep-20 16:21 36.737984 -121.816638 293 4949ft 206kts
14-Sep-20 16:22 36.763041 -121.882127 293 4907ft 218kts
14-Sep-20 16:23 36.790349 -121.954991 293 3639ft 230kts
14-Sep-20 16:24 36.815556 -122.024820 293 2978ft 218kts
14-Sep-20 16:25 36.841353 -122.097998 293 2984ft 238kts
14-Sep-20 16:26 36.811019 -122.154878 194 2655ft 243kts
14-Sep-20 16:27 36.756219 -122.168937 193 2587ft 178kts
14-Sep-20 16:28 36.714307 -122.155841 133 2590ft 167kts
14-Sep-20 16:29 36.683662 -122.113279 133 2584ft 162kts
14-Sep-20 16:30 36.659680 -122.059745 113 2580ft 186kts
14-Sep-20 16:31 36.641016 -122.004628 112 2569ft 161kts
14-Sep-20 16:32 36.622993 -121.951066 112 1790ft 155kts
14-Sep-20 16:33 36.607415 -121.904829 111 1027ft 145kts
14-Sep-20 16:34 36.591594 -121.857970 110 218ft 133kts
14-Sep-20 16:35 36.583599 -121.836268 213 266ft 11kts
14-Sep-20 16:36 36.584349 -121.839393 293 252ft 34kts
14-Sep-20 16:37 36.588407 -121.851071 292 170ft 37kts

Navigation Log

Ident Type
Flight plan parsing failed, navigation log unavailable